Time;durP1;ratioP1;P1;durP2;ratioP2;P2;SDS_P1;SDS_P2;PMS_P1;PMS_P2;Temp;Humidity;BMP_temperature;BMP_pressure;BME280_temperature;BME280_humidity;BME280_pressure;Samples;Min_cycle;Max_cycle;Signal;HPM_P1;HPM_P2
2022/12/11 00:04:08;;;;;;;60.20;20.00;;;;;;;-0.30;100.00;97475.80;214289;1308;22465;-77
2022/12/11 00:09:11;;;;;;;48.30;18.10;;;;;;;-0.31;100.00;97466.38;214196;1298;22482;-77
2022/12/11 00:14:16;;;;;;;53.00;18.90;;;;;;;-0.34;100.00;97456.55;214236;1310;22464;-76
2022/12/11 00:19:18;;;;;;;59.70;20.60;;;;;;;-0.35;100.00;97445.13;214100;1312;22586;-76
2022/12/11 00:24:20;;;;;;;62.30;20.60;;;;;;;-0.36;100.00;97431.11;214238;1305;24455;-76
2022/12/11 00:29:21;;;;;;;60.30;18.80;;;;;;;-0.37;100.00;97432.69;213915;1310;22464;-77
2022/12/11 00:34:28;;;;;;;52.00;19.10;;;;;;;-0.40;100.00;97438.04;214219;1309;22523;-75
2022/12/11 00:39:30;;;;;;;57.50;17.20;;;;;;;-0.42;100.00;97434.48;214219;1310;26483;-75
2022/12/11 00:44:31;;;;;;;63.70;17.70;;;;;;;-0.44;100.00;97432.52;214427;1310;24244;-77
2022/12/11 00:49:33;;;;;;;48.90;15.20;;;;;;;-0.44;100.00;97430.20;214275;1310;25315;-76
2022/12/11 00:54:35;;;;;;;57.60;17.40;;;;;;;-0.45;100.00;97436.89;214414;1310;24328;-76
2022/12/11 00:59:37;;;;;;;63.60;16.80;;;;;;;-0.45;100.00;97437.78;214226;1310;23240;-76
2022/12/11 01:04:39;;;;;;;42.70;13.80;;;;;;;-0.48;100.00;97436.75;214162;1310;24279;-76
2022/12/11 01:15:01;;;;;;;59.40;16.50;;;;;;;-0.49;100.00;97431.58;214522;1310;22572;-77
2022/12/11 01:20:04;;;;;;;70.60;19.50;;;;;;;-0.49;100.00;97427.02;214168;1310;24270;-75
2022/12/11 01:25:08;;;;;;;61.90;18.40;;;;;;;-0.48;100.00;97423.80;214243;1311;22466;-77
2022/12/11 01:30:12;;;;;;;60.20;18.00;;;;;;;-0.49;100.00;97418.17;214475;1312;22478;-76
2022/12/11 01:35:14;;;;;;;58.10;15.40;;;;;;;-0.52;100.00;97422.56;214202;1310;24277;-76
2022/12/11 01:40:18;;;;;;;49.20;15.50;;;;;;;-0.53;100.00;97422.87;214271;1310;22684;-77
2022/12/11 01:45:20;;;;;;;41.50;14.00;;;;;;;-0.52;100.00;97418.40;214383;1310;22557;-76
2022/12/11 01:50:22;;;;;;;61.90;16.60;;;;;;;-0.50;100.00;97421.15;214460;1309;22466;-75
2022/12/11 01:55:24;;;;;;;46.50;14.40;;;;;;;-0.49;100.00;97420.85;214172;1310;23299;-77
2022/12/11 02:00:26;;;;;;;47.60;15.80;;;;;;;-0.50;100.00;97425.10;214431;1310;22776;-76
2022/12/11 02:05:28;;;;;;;44.50;14.70;;;;;;;-0.49;100.00;97426.23;214271;1310;22491;-76
2022/12/11 02:10:42;;;;;;;45.20;14.00;;;;;;;-0.47;100.00;97422.55;214406;1310;22472;-75
2022/12/11 02:15:48;;;;;;;60.10;16.50;;;;;;;-0.47;100.00;97421.66;214037;1310;24305;-76
2022/12/11 02:21:00;;;;;;;61.20;17.00;;;;;;;-0.48;100.00;97416.55;214285;1310;25361;-76
2022/12/11 02:26:17;;;;;;;49.90;15.70;;;;;;;-0.48;100.00;97415.49;214171;1310;22609;-75
2022/12/11 02:31:57;;;;;;;63.70;15.10;;;;;;;-0.48;100.00;97414.13;214277;1310;22595;-76
2022/12/11 02:37:06;;;;;;;65.70;15.90;;;;;;;-0.47;100.00;97412.02;213940;1310;23551;-76
2022/12/11 02:42:10;;;;;;;62.70;14.90;;;;;;;-0.49;100.00;97409.38;214350;1310;22735;-76
2022/12/11 02:47:15;;;;;;;59.40;17.00;;;;;;;-0.51;100.00;97411.05;214284;1310;22477;-76
2022/12/11 02:52:21;;;;;;;70.10;15.80;;;;;;;-0.50;100.00;97396.10;214356;1310;22628;-77
2022/12/11 02:57:36;;;;;;;60.90;15.70;;;;;;;-0.51;100.00;97391.80;214331;1310;22606;-78
2022/12/11 03:02:40;;;;;;;55.60;15.40;;;;;;;-0.54;100.00;97401.14;214267;1310;22659;-76
2022/12/11 03:07:43;;;;;;;55.40;15.20;;;;;;;-0.56;100.00;97396.42;214301;1310;22475;-76
2022/12/11 03:12:50;;;;;;;65.20;17.30;;;;;;;-0.57;100.00;97382.69;214144;1310;23907;-74
2022/12/11 03:18:09;;;;;;;47.30;13.80;;;;;;;-0.58;100.00;97391.11;214079;1310;22512;-75
2022/12/11 03:23:21;;;;;;;56.40;14.50;;;;;;;-0.60;100.00;97394.45;214400;1302;22918;-75
2022/12/11 03:28:30;;;;;;;48.70;14.10;;;;;;;-0.61;100.00;97397.65;214416;1302;22499;-75
2022/12/11 03:33:37;;;;;;;49.30;15.60;;;;;;;-0.63;100.00;97395.80;214412;1309;25352;-75
2022/12/11 03:38:50;;;;;;;52.20;15.30;;;;;;;-0.63;100.00;97396.36;214181;1310;22485;-76
2022/12/11 03:43:56;;;;;;;71.30;18.90;;;;;;;-0.63;100.00;97386.59;214233;1310;25606;-75
2022/12/11 03:49:02;;;;;;;62.10;16.90;;;;;;;-0.64;100.00;97384.84;214278;1310;25633;-76
2022/12/11 03:54:05;;;;;;;67.40;18.60;;;;;;;-0.65;100.00;97386.39;214305;1309;22613;-76
2022/12/11 03:59:07;;;;;;;65.40;17.10;;;;;;;-0.67;100.00;97377.66;214288;1310;22536;-76
2022/12/11 04:04:09;;;;;;;63.40;16.80;;;;;;;-0.71;100.00;97374.95;214033;1310;22477;-76
2022/12/11 04:09:11;;;;;;;62.10;17.50;;;;;;;-0.73;100.00;97366.52;214080;1310;22508;-76
2022/12/11 04:24:55;;;;;;;70.50;17.90;;;;;;;-0.84;100.00;97365.88;214294;1310;25523;-76
2022/12/11 04:29:57;;;;;;;60.60;17.10;;;;;;;-0.87;100.00;97366.07;214099;1310;23079;-76
2022/12/11 04:34:59;;;;;;;53.40;16.80;;;;;;;-0.89;100.00;97360.26;214107;1310;22477;-76
2022/12/11 04:40:03;;;;;;;58.70;16.00;;;;;;;-0.91;100.00;97354.30;214104;1309;22614;-76
2022/12/11 04:45:07;;;;;;;61.70;16.90;;;;;;;-0.93;100.00;97350.08;214151;1310;25447;-76
2022/12/11 04:50:12;;;;;;;56.40;15.20;;;;;;;-0.94;100.00;97350.52;214313;1310;22697;-76
2022/12/11 04:55:13;;;;;;;45.40;13.00;;;;;;;-0.96;100.00;97353.88;214342;1310;22565;-78
2022/12/11 05:00:16;;;;;;;64.20;16.80;;;;;;;-0.98;100.00;97352.44;214183;1309;24959;-77
2022/12/11 05:05:18;;;;;;;62.60;17.40;;;;;;;-0.98;100.00;97354.45;214215;1306;24276;-76
2022/12/11 05:10:20;;;;;;;66.00;17.40;;;;;;;-0.99;100.00;97353.96;214178;1309;25460;-77
2022/12/11 05:15:22;;;;;;;54.40;15.20;;;;;;;-1.02;100.00;97349.23;214347;1309;24346;-76
2022/12/11 05:20:24;;;;;;;55.50;16.40;;;;;;;-1.07;100.00;97348.25;214218;1309;22557;-75
2022/12/11 05:25:25;;;;;;;52.40;16.00;;;;;;;-1.09;100.00;97349.91;214156;1310;24318;-77
2022/12/11 05:30:27;;;;;;;74.40;18.80;;;;;;;-1.08;100.00;97350.55;214206;1309;24362;-76
2022/12/11 05:35:29;;;;;;;69.70;18.30;;;;;;;-1.07;100.00;97342.47;214279;1309;22464;-76
2022/12/11 05:40:31;;;;;;;60.00;15.00;;;;;;;-1.08;100.00;97341.31;214158;1310;24420;-75
2022/12/11 05:45:33;;;;;;;91.40;26.40;;;;;;;-1.11;100.00;97339.39;214289;1309;22586;-75
2022/12/11 05:50:35;;;;;;;82.30;24.60;;;;;;;-1.14;100.00;97345.83;214413;1306;24524;-75
2022/12/11 05:55:41;;;;;;;79.90;23.70;;;;;;;-1.18;100.00;97349.45;214215;1310;22631;-76
2022/12/11 06:00:43;;;;;;;70.90;21.70;;;;;;;-1.21;100.00;97347.05;214229;1304;22478;-75
2022/12/11 06:05:45;;;;;;;65.20;18.90;;;;;;;-1.20;100.00;97349.59;214387;1310;25236;-76
2022/12/11 06:10:48;;;;;;;60.70;16.20;;;;;;;-1.20;100.00;97354.11;214258;1309;22601;-75
2022/12/11 06:15:51;;;;;;;51.80;13.60;;;;;;;-1.21;100.00;97359.52;214397;1310;22509;-75
2022/12/11 06:20:53;;;;;;;46.40;14.90;;;;;;;-1.24;100.00;97360.91;214288;1309;22518;-75
2022/12/11 06:25:55;;;;;;;50.20;15.10;;;;;;;-1.28;100.00;97356.02;214369;1309;24311;-75
2022/12/11 06:31:01;;;;;;;51.50;14.40;;;;;;;-1.32;100.00;97362.81;214264;1310;22498;-76
2022/12/11 06:36:05;;;;;;;45.60;13.70;;;;;;;-1.32;100.00;97366.22;214171;1310;22934;-76
2022/12/11 06:41:08;;;;;;;51.40;15.30;;;;;;;-1.28;100.00;97367.01;214151;1310;23950;-76
2022/12/11 06:46:14;;;;;;;51.00;14.50;;;;;;;-1.30;100.00;97374.86;214428;1309;25319;-77
2022/12/11 06:51:18;;;;;;;45.20;15.20;;;;;;;-1.30;100.00;97380.65;214195;1310;22517;-76
2022/12/11 06:56:21;;;;;;;53.50;16.70;;;;;;;-1.32;100.00;97381.73;214306;1310;23806;-76
2022/12/11 07:01:26;;;;;;;54.30;16.00;;;;;;;-1.33;100.00;97381.98;214149;1310;24116;-76
2022/12/11 07:06:28;;;;;;;64.20;17.10;;;;;;;-1.35;100.00;97378.55;214267;1309;22594;-76
2022/12/11 07:11:30;;;;;;;65.40;18.20;;;;;;;-1.35;100.00;97378.32;214314;1310;22494;-75
2022/12/11 07:16:32;;;;;;;77.30;21.60;;;;;;;-1.39;100.00;97372.59;214173;1310;24568;-75
2022/12/11 07:21:34;;;;;;;66.30;18.70;;;;;;;-1.42;100.00;97374.05;214293;1310;22471;-76
2022/12/11 07:26:36;;;;;;;77.90;19.30;;;;;;;-1.44;100.00;97375.34;214167;1310;22584;-76
2022/12/11 07:31:38;;;;;;;56.00;17.80;;;;;;;-1.44;100.00;97379.70;214272;1305;22531;-77
2022/12/11 07:36:41;;;;;;;67.20;20.30;;;;;;;-1.44;100.00;97386.58;214426;1310;24930;-76
2022/12/11 07:41:42;;;;;;;68.60;18.70;;;;;;;-1.47;100.00;97394.31;214324;1310;26604;-76
2022/12/11 07:46:44;;;;;;;63.00;15.80;;;;;;;-1.46;100.00;97394.28;214293;1306;23983;-75
2022/12/11 07:51:46;;;;;;;61.80;17.20;;;;;;;-1.44;100.00;97396.62;214356;1310;24465;-74
2022/12/11 07:56:48;;;;;;;58.50;16.70;;;;;;;-1.42;100.00;97397.34;214161;1310;23318;-77
2022/12/11 08:01:54;;;;;;;54.70;16.40;;;;;;;-1.42;100.00;97401.38;214283;1310;25353;-76
2022/12/11 08:06:56;;;;;;;39.10;12.60;;;;;;;-1.38;100.00;97403.27;214213;1310;24713;-76
2022/12/11 08:11:58;;;;;;;48.50;14.90;;;;;;;-1.38;100.00;97409.20;214225;1304;22513;-76
2022/12/11 08:17:01;;;;;;;41.90;13.70;;;;;;;-1.40;100.00;97402.17;214165;1310;25453;-76
2022/12/11 08:22:03;;;;;;;50.90;14.90;;;;;;;-1.40;100.00;97396.13;214173;1310;22506;-77
2022/12/11 08:27:05;;;;;;;48.00;14.10;;;;;;;-1.34;100.00;97397.09;214416;1309;23941;-76
2022/12/11 08:32:07;;;;;;;41.00;14.90;;;;;;;-1.30;100.00;97394.20;214183;1298;22611;-76
2022/12/11 08:37:13;;;;;;;49.00;14.80;;;;;;;-1.27;100.00;97396.13;214390;1310;22491;-76
2022/12/11 08:42:15;;;;;;;37.10;12.40;;;;;;;-1.30;100.00;97402.09;214332;1310;22482;-76
2022/12/11 08:47:17;;;;;;;42.40;15.00;;;;;;;-1.31;100.00;97412.52;214107;1310;22607;-77
2022/12/11 08:52:20;;;;;;;41.90;13.00;;;;;;;-1.33;100.00;97414.61;214183;1310;24362;-77
2022/12/11 08:57:21;;;;;;;39.10;14.20;;;;;;;-1.32;100.00;97411.05;214163;1310;22468;-76
2022/12/11 09:02:23;;;;;;;48.10;15.30;;;;;;;-1.27;100.00;97407.16;214198;1309;22466;-78
2022/12/11 09:07:26;;;;;;;38.00;13.20;;;;;;;-1.20;100.00;97407.04;214080;1304;22711;-77
2022/12/11 09:12:28;;;;;;;40.90;14.30;;;;;;;-1.10;100.00;97399.17;214378;1310;23543;-77
2022/12/11 09:17:29;;;;;;;41.00;14.50;;;;;;;-1.00;100.00;97400.63;214248;1310;26181;-77
2022/12/11 09:22:32;;;;;;;40.80;13.80;;;;;;;-0.94;100.00;97407.84;214346;1310;22566;-76
2022/12/11 09:27:34;;;;;;;36.00;14.50;;;;;;;-0.89;100.00;97401.64;214369;1310;22468;-76
2022/12/11 09:32:36;;;;;;;40.50;14.50;;;;;;;-0.88;100.00;97393.82;214293;1310;22672;-77
2022/12/11 09:37:38;;;;;;;43.00;14.70;;;;;;;-0.89;100.00;97394.23;214404;1307;22701;-79
2022/12/11 09:42:49;;;;;;;39.10;14.50;;;;;;;-0.85;100.00;97399.41;214469;1309;22484;-77
2022/12/11 09:47:55;;;;;;;33.80;13.70;;;;;;;-0.80;100.00;97393.80;214189;1309;22475;-77
2022/12/11 09:53:20;;;;;;;42.70;15.30;;;;;;;-0.73;100.00;97394.08;214277;1310;24745;-77
2022/12/11 09:58:53;;;;;;;38.30;15.20;;;;;;;-0.57;100.00;97389.47;214377;1309;24286;-78
2022/12/11 10:04:08;;;;;;;30.70;12.50;;;;;;;-0.58;100.00;97398.20;214074;1309;24313;-77
2022/12/11 10:09:27;;;;;;;30.10;12.70;;;;;;;-0.71;100.00;97389.77;214231;1310;25467;-77
2022/12/11 10:14:46;;;;;;;32.00;12.80;;;;;;;-0.78;100.00;97389.81;214325;1310;25264;-77
2022/12/11 10:19:49;;;;;;;35.60;14.10;;;;;;;-0.82;100.00;97384.93;214427;1310;23062;-76
2022/12/11 10:24:58;;;;;;;33.70;14.30;;;;;;;-0.82;100.00;97385.20;214248;1294;22547;-77
2022/12/11 10:30:36;;;;;;;25.50;12.00;;;;;;;-0.80;100.00;97378.90;214439;1310;23777;-77
2022/12/11 10:35:49;;;;;;;29.10;13.20;;;;;;;-0.81;100.00;97389.20;214231;1310;23834;-77
2022/12/11 10:40:57;;;;;;;28.60;12.50;;;;;;;-0.82;100.00;97389.04;214055;1294;125561;-78
2022/12/11 10:46:00;;;;;;;27.40;12.60;;;;;;;-0.92;100.00;97374.63;214314;1310;22489;-78
2022/12/11 10:51:06;;;;;;;33.70;14.00;;;;;;;-1.05;100.00;97366.20;214183;1310;22551;-77
2022/12/11 10:56:08;;;;;;;34.10;13.90;;;;;;;-1.11;100.00;97361.83;214604;1310;22962;-78
2022/12/11 11:01:15;;;;;;;36.10;14.50;;;;;;;-1.13;100.00;97353.98;214215;1310;22521;-77
2022/12/11 11:06:20;;;;;;;29.80;12.80;;;;;;;-1.13;100.00;97350.86;214396;1310;25402;-77
2022/12/11 11:11:27;;;;;;;27.20;12.20;;;;;;;-1.14;100.00;97353.59;214342;1310;22546;-79
2022/12/11 11:16:29;;;;;;;35.90;13.90;;;;;;;-1.16;100.00;97346.63;214246;1310;22635;-77
2022/12/11 11:21:31;;;;;;;34.60;14.20;;;;;;;-1.17;100.00;97333.34;214291;1310;25320;-77
2022/12/11 11:26:33;;;;;;;31.60;13.70;;;;;;;-1.18;100.00;97333.48;214189;1310;22511;-77
2022/12/11 11:31:56;;;;;;;31.50;13.60;;;;;;;-1.21;100.00;97339.34;214532;1309;22546;-78
2022/12/11 11:36:59;;;;;;;32.10;13.40;;;;;;;-1.24;100.00;97335.46;214453;1310;22963;-77
2022/12/11 11:42:19;;;;;;;30.40;12.50;;;;;;;-1.20;100.00;97331.40;214174;1310;24372;-78
2022/12/11 11:47:29;;;;;;;32.20;13.90;;;;;;;-1.19;100.00;97328.73;214194;1309;25289;-77
2022/12/11 11:52:53;;;;;;;31.80;13.90;;;;;;;-1.18;100.00;97329.53;214158;1309;22681;-77
2022/12/11 11:58:23;;;;;;;39.80;16.90;;;;;;;-1.12;100.00;97323.86;214420;1309;23017;-77
2022/12/11 12:03:26;;;;;;;46.00;17.20;;;;;;;-1.11;100.00;97333.60;214263;1297;22603;-79
2022/12/11 12:08:45;;;;;;;44.00;16.50;;;;;;;-1.13;100.00;97328.58;214363;1309;23204;-78
2022/12/11 12:14:15;;;;;;;35.20;14.40;;;;;;;-1.20;100.00;97324.85;214144;1310;24387;-78
2022/12/11 12:20:09;;;;;;;34.60;15.70;;;;;;;-1.29;100.00;97322.13;214392;1310;22489;-77
2022/12/11 12:25:34;;;;;;;30.50;14.10;;;;;;;-1.35;100.00;97323.46;214405;1309;24815;-77
2022/12/11 12:30:50;;;;;;;33.30;13.40;;;;;;;-1.34;100.00;97327.41;214355;1304;23236;-78
2022/12/11 12:36:13;;;;;;;37.20;15.70;;;;;;;-1.34;100.00;97322.80;214392;1308;25315;-77
2022/12/11 12:41:34;;;;;;;34.30;15.30;;;;;;;-1.31;100.00;97323.98;214352;1304;22646;-77
2022/12/11 12:46:58;;;;;;;33.80;14.30;;;;;;;-1.31;100.00;97324.84;214148;1310;25595;-80
2022/12/11 12:52:01;;;;;;;37.40;16.10;;;;;;;-1.29;100.00;97325.63;214269;1310;25102;-77
2022/12/11 12:57:04;;;;;;;35.90;14.80;;;;;;;-1.31;100.00;97330.34;214183;1310;22566;-77
2022/12/11 13:02:15;;;;;;;43.80;16.50;;;;;;;-1.37;100.00;97334.70;214314;1310;22657;-78
2022/12/11 13:07:23;;;;;;;33.80;14.10;;;;;;;-1.44;100.00;97334.04;214344;1310;22493;-77
2022/12/11 13:12:40;;;;;;;31.10;13.30;;;;;;;-1.51;100.00;97337.37;214362;1298;22468;-78
2022/12/11 13:17:42;;;;;;;32.60;13.10;;;;;;;-1.59;100.00;97342.11;214340;1310;22513;-77
2022/12/11 13:23:28;;;;;;;30.90;14.00;;;;;;;-1.71;100.00;97344.48;214483;1309;24431;-77
2022/12/11 13:28:38;;;;;;;28.40;13.50;;;;;;;-1.83;100.00;97350.43;214207;1304;24342;-77
2022/12/11 13:33:50;;;;;;;25.50;10.50;;;;;;;-1.95;100.00;97353.73;214346;1310;22480;-77
2022/12/11 13:38:58;;;;;;;27.90;13.50;;;;;;;-2.04;100.00;97360.70;214443;1283;25523;-78
2022/12/11 13:44:01;;;;;;;29.00;12.30;;;;;;;-2.10;100.00;97368.64;214412;1304;22597;-77
2022/12/11 13:49:05;;;;;;;36.50;13.80;;;;;;;-2.15;100.00;97370.88;214294;1310;22589;-76
2022/12/11 13:54:16;;;;;;;36.10;13.60;;;;;;;-2.18;100.00;97369.98;214155;1310;22771;-78
2022/12/11 13:59:24;;;;;;;33.60;12.70;;;;;;;-2.21;100.00;97373.79;214334;1308;22673;-77
2022/12/11 14:04:27;;;;;;;32.70;13.10;;;;;;;-2.26;100.00;97375.02;214432;1288;24337;-77
2022/12/11 14:09:30;;;;;;;31.90;14.00;;;;;;;-2.31;100.00;97376.79;214189;1310;22477;-77
2022/12/11 14:14:44;;;;;;;26.10;10.80;;;;;;;-2.35;100.00;97379.14;214274;1310;22631;-77
2022/12/11 14:19:47;;;;;;;38.00;14.70;;;;;;;-2.36;100.00;97384.99;214403;1310;24469;-76
2022/12/11 14:25:25;;;;;;;31.40;13.30;;;;;;;-2.40;100.00;97390.72;214188;1309;23333;-73
2022/12/11 14:30:32;;;;;;;35.00;12.50;;;;;;;-2.47;100.00;97392.75;214394;1309;22486;-77
2022/12/11 14:35:40;;;;;;;36.00;15.40;;;;;;;-2.51;100.00;97394.50;214255;1309;24743;-77
2022/12/11 14:40:46;;;;;;;30.50;12.10;;;;;;;-2.56;100.00;97393.00;214182;1310;25362;-76
2022/12/11 14:45:53;;;;;;;38.40;14.20;;;;;;;-2.61;100.00;97391.41;214809;1310;22539;-76
2022/12/11 14:51:00;;;;;;;36.90;16.20;;;;;;;-2.67;100.00;97383.81;214448;1295;22548;-75
2022/12/11 14:56:06;;;;;;;33.60;13.90;;;;;;;-2.74;100.00;97382.17;214387;1308;22477;-76
2022/12/11 15:01:27;;;;;;;31.40;13.00;;;;;;;-2.79;100.00;97377.37;214535;1310;25534;-75
2022/12/11 15:06:31;;;;;;;30.50;13.10;;;;;;;-2.84;100.00;97388.25;214116;1310;22477;-75
2022/12/11 15:11:33;;;;;;;35.60;13.60;;;;;;;-2.87;100.00;97389.33;214142;1310;22939;-75
2022/12/11 15:16:39;;;;;;;33.90;14.20;;;;;;;-2.92;100.00;97387.85;214418;1309;22632;-75
2022/12/11 15:21:41;;;;;;;37.50;16.20;;;;;;;-2.96;100.00;97388.67;214325;1310;22520;-75
2022/12/11 15:26:45;;;;;;;41.40;16.80;;;;;;;-2.98;100.00;97389.41;214439;1310;22453;-74
2022/12/11 15:31:58;;;;;;;36.30;15.30;;;;;;;-3.00;100.00;97392.42;214459;1310;25638;-75
2022/12/11 15:37:00;;;;;;;40.40;15.80;;;;;;;-3.00;100.00;97388.39;214280;1310;22598;-74
2022/12/11 15:42:04;;;;;;;42.10;16.30;;;;;;;-2.99;100.00;97387.04;214347;1310;23192;-77
2022/12/11 15:47:20;;;;;;;44.90;15.80;;;;;;;-3.01;100.00;97390.51;214270;1309;22647;-75
2022/12/11 15:52:22;;;;;;;38.70;15.90;;;;;;;-3.02;100.00;97392.80;214552;1310;22470;-76
2022/12/11 15:57:25;;;;;;;37.50;15.30;;;;;;;-3.02;100.00;97396.78;214077;1310;22661;-76
2022/12/11 16:02:27;;;;;;;38.50;16.30;;;;;;;-3.03;100.00;97412.17;214309;1310;22576;-74
2022/12/11 16:07:30;;;;;;;37.90;15.90;;;;;;;-3.04;100.00;97410.95;214507;1310;25467;-75
2022/12/11 16:12:31;;;;;;;41.50;16.00;;;;;;;-3.05;100.00;97411.80;214356;1307;22796;-75
2022/12/11 16:17:33;;;;;;;30.90;12.90;;;;;;;-3.08;100.00;97414.86;214329;1309;22714;-75
2022/12/11 16:22:35;;;;;;;32.60;14.50;;;;;;;-3.11;100.00;97420.83;214269;1309;22665;-76
2022/12/11 16:27:37;;;;;;;38.10;16.40;;;;;;;-3.18;100.00;97412.31;214373;1310;24279;-74
2022/12/11 16:32:38;;;;;;;30.40;12.80;;;;;;;-3.22;100.00;97414.05;214244;1310;25440;-76
2022/12/11 16:37:40;;;;;;;38.60;15.10;;;;;;;-3.26;100.00;97419.39;214221;1310;22805;-75
2022/12/11 16:42:42;;;;;;;34.20;14.30;;;;;;;-3.26;100.00;97426.45;214202;1298;22483;-76
2022/12/11 16:47:44;;;;;;;37.50;15.90;;;;;;;-3.29;100.00;97424.72;214228;1310;22666;-75
2022/12/11 16:52:46;;;;;;;31.80;13.90;;;;;;;-3.31;100.00;97428.97;214335;1310;22515;-76
2022/12/11 16:57:48;;;;;;;39.70;16.60;;;;;;;-3.34;100.00;97434.58;214101;1307;22599;-76
2022/12/11 17:02:49;;;;;;;42.10;17.70;;;;;;;-3.35;100.00;97435.27;214396;1310;25575;-75
2022/12/11 17:07:51;;;;;;;43.30;17.20;;;;;;;-3.36;100.00;97434.17;214198;1310;22637;-75
2022/12/11 17:12:54;;;;;;;38.20;15.60;;;;;;;-3.36;100.00;97431.03;214174;1309;23797;-75
2022/12/11 17:17:55;;;;;;;41.10;16.60;;;;;;;-3.38;100.00;97430.10;214183;1310;25441;-75
2022/12/11 17:22:57;;;;;;;40.20;17.60;;;;;;;-3.38;100.00;97427.27;214165;1309;23926;-75
2022/12/11 17:27:59;;;;;;;32.30;14.90;;;;;;;-3.39;100.00;97428.35;214392;1310;22554;-75
2022/12/11 17:33:01;;;;;;;33.20;14.20;;;;;;;-3.42;100.00;97434.05;214323;1310;22608;-75
2022/12/11 17:38:03;;;;;;;28.80;13.10;;;;;;;-3.44;100.00;97439.41;214273;1310;24240;-74
2022/12/11 17:43:08;;;;;;;29.60;14.60;;;;;;;-3.45;100.00;97436.36;214294;1310;22550;-75
2022/12/11 17:48:11;;;;;;;28.20;11.60;;;;;;;-3.45;100.00;97442.48;214177;1310;23081;-74
2022/12/11 17:53:14;;;;;;;31.90;14.60;;;;;;;-3.47;100.00;97435.14;214236;1310;25586;-74
2022/12/11 17:58:19;;;;;;;29.40;12.50;;;;;;;-3.50;100.00;97432.41;214454;1309;26589;-75
2022/12/11 18:03:21;;;;;;;30.60;12.60;;;;;;;-3.52;100.00;97431.12;214375;1310;22797;-75
2022/12/11 18:08:25;;;;;;;32.10;14.20;;;;;;;-3.53;100.00;97430.98;214177;1310;22502;-74
2022/12/11 18:13:27;;;;;;;34.40;13.70;;;;;;;-3.54;100.00;97424.13;214388;1298;22576;-74
2022/12/11 18:18:30;;;;;;;41.40;16.80;;;;;;;-3.53;100.00;97426.91;214321;1310;25463;-74
2022/12/11 18:23:33;;;;;;;39.10;16.70;;;;;;;-3.50;100.00;97430.20;214327;1310;25540;-74
2022/12/11 18:28:34;;;;;;;45.70;16.60;;;;;;;-3.47;100.00;97428.97;214397;1310;22802;-74
2022/12/11 18:33:38;;;;;;;38.90;16.70;;;;;;;-3.43;100.00;97430.89;214460;1302;22948;-74
2022/12/11 18:38:41;;;;;;;41.10;16.30;;;;;;;-3.41;100.00;97423.28;214404;1310;23035;-76
2022/12/11 18:43:43;;;;;;;36.80;14.90;;;;;;;-3.39;100.00;97426.89;214492;1309;22755;-75
2022/12/11 18:48:47;;;;;;;39.10;15.90;;;;;;;-3.38;100.00;97428.98;214315;1310;22686;-74
2022/12/11 18:53:49;;;;;;;41.90;17.20;;;;;;;-3.38;100.00;97430.10;214253;1310;22643;-75
2022/12/11 18:58:51;;;;;;;40.50;16.00;;;;;;;-3.34;100.00;97430.95;214263;1310;22699;-75
2022/12/11 19:03:56;;;;;;;42.30;16.30;;;;;;;-3.34;100.00;97435.84;214175;1310;24464;-74
2022/12/11 19:09:07;;;;;;;35.70;15.10;;;;;;;-3.37;100.00;97431.78;214313;1310;22621;-75
2022/12/11 19:14:10;;;;;;;28.70;13.00;;;;;;;-3.41;100.00;97440.19;214224;1312;22649;-74
2022/12/11 19:19:15;;;;;;;32.40;13.40;;;;;;;-3.43;100.00;97437.53;214041;1310;25491;-75
2022/12/11 19:24:19;;;;;;;30.40;12.00;;;;;;;-3.44;100.00;97430.02;214184;1311;22965;-75
2022/12/11 19:29:27;;;;;;;30.60;12.50;;;;;;;-3.48;100.00;97431.30;214295;1313;24335;-76
2022/12/11 19:34:29;;;;;;;27.80;11.90;;;;;;;-3.50;100.00;97433.20;214302;1313;22605;-76
2022/12/11 19:39:31;;;;;;;35.70;15.20;;;;;;;-3.53;100.00;97430.84;214103;1312;22611;-77
2022/12/11 19:44:33;;;;;;;29.00;13.30;;;;;;;-3.55;100.00;97431.77;214071;1312;22521;-75
2022/12/11 19:49:35;;;;;;;27.80;11.10;;;;;;;-3.58;100.00;97438.89;214310;1313;24275;-75
2022/12/11 19:54:37;;;;;;;32.20;13.30;;;;;;;-3.65;100.00;97439.02;214141;1312;22535;-75
2022/12/11 19:59:40;;;;;;;28.30;12.60;;;;;;;-3.70;100.00;97433.67;214329;1311;22473;-75
2022/12/11 20:04:43;;;;;;;35.60;14.80;;;;;;;-3.74;100.00;97433.30;214294;1312;25580;-75
2022/12/11 20:09:45;;;;;;;28.50;12.50;;;;;;;-3.77;100.00;97432.99;214328;1312;23349;-75
2022/12/11 20:14:46;;;;;;;32.40;13.10;;;;;;;-3.80;100.00;97436.17;213965;1312;22501;-75
2022/12/11 20:19:48;;;;;;;32.20;13.30;;;;;;;-3.82;100.00;97433.55;213954;1313;23791;-76
2022/12/11 20:24:50;;;;;;;29.00;12.20;;;;;;;-3.84;100.00;97435.39;213922;1312;25435;-74
2022/12/11 20:29:52;;;;;;;26.00;11.90;;;;;;;-3.85;100.00;97435.65;214143;1312;25522;-75
2022/12/11 20:34:55;;;;;;;36.60;13.60;;;;;;;-3.83;100.00;97435.31;214177;1312;25500;-74
2022/12/11 20:39:58;;;;;;;32.60;15.00;;;;;;;-3.81;100.00;97434.59;214303;1312;23826;-75
2022/12/11 20:45:00;;;;;;;32.90;13.40;;;;;;;-3.77;100.00;97434.97;214217;1312;22519;-75
2022/12/11 20:50:02;;;;;;;24.90;11.70;;;;;;;-3.74;100.00;97432.73;214181;1311;24237;-76
2022/12/11 20:55:05;;;;;;;33.50;12.90;;;;;;;-3.69;100.00;97432.16;214047;1314;23760;-77
2022/12/11 21:00:08;;;;;;;36.40;15.30;;;;;;;-3.64;100.00;97430.10;214033;1312;22576;-75
2022/12/11 21:05:10;;;;;;;31.70;12.80;;;;;;;-3.59;100.00;97432.48;214208;1310;24273;-75
2022/12/11 21:10:12;;;;;;;32.30;13.00;;;;;;;-3.55;100.00;97426.71;214102;1310;24263;-74
2022/12/11 21:15:14;;;;;;;36.30;14.60;;;;;;;-3.51;100.00;97423.38;214143;1310;22586;-76
2022/12/11 21:20:16;;;;;;;25.70;11.60;;;;;;;-3.46;100.00;97430.97;214069;1310;25422;-75
2022/12/11 21:25:18;;;;;;;24.80;10.40;;;;;;;-3.46;100.00;97433.06;214021;1310;22736;-75
2022/12/11 21:30:20;;;;;;;29.20;12.20;;;;;;;-3.45;100.00;97433.26;214195;1304;22581;-75
2022/12/11 21:35:22;;;;;;;30.60;11.30;;;;;;;-3.45;100.00;97438.55;214171;1310;22517;-76
2022/12/11 21:40:24;;;;;;;28.70;11.90;;;;;;;-3.47;100.00;97434.89;214255;1310;22541;-76
2022/12/11 21:45:25;;;;;;;29.60;12.60;;;;;;;-3.48;100.00;97434.60;214068;1310;24353;-74
2022/12/11 21:50:47;;;;;;;32.00;11.90;;;;;;;-3.50;100.00;97436.80;214226;1310;22482;-75
2022/12/11 21:55:49;;;;;;;32.40;13.50;;;;;;;-3.51;100.00;97437.15;214157;1310;25460;-77
2022/12/11 22:00:50;;;;;;;29.50;12.40;;;;;;;-3.47;100.00;97432.90;214153;1310;25573;-75
2022/12/11 22:05:53;;;;;;;36.80;12.40;;;;;;;-3.45;100.00;97433.04;214151;1308;25656;-76
2022/12/11 22:10:57;;;;;;;32.40;13.00;;;;;;;-3.42;100.00;97429.73;213741;1310;23527;-75
2022/12/11 22:16:02;;;;;;;34.30;12.60;;;;;;;-3.44;100.00;97433.08;214109;1310;24275;-75
2022/12/11 22:21:04;;;;;;;36.70;12.00;;;;;;;-3.43;100.00;97433.19;214027;1310;23977;-75
2022/12/11 22:26:08;;;;;;;35.70;13.70;;;;;;;-3.41;100.00;97429.20;213859;1310;22490;-75
2022/12/11 22:31:15;;;;;;;36.60;12.60;;;;;;;-3.37;100.00;97425.30;214120;1310;22529;-76
2022/12/11 22:36:18;;;;;;;33.40;13.60;;;;;;;-3.35;100.00;97425.17;214293;1310;22725;-75
2022/12/11 22:41:31;;;;;;;40.80;14.20;;;;;;;-3.34;100.00;97428.02;213932;1310;135679;-76
2022/12/11 22:46:33;;;;;;;33.50;13.00;;;;;;;-3.37;100.00;97422.40;213976;1310;26597;-75
2022/12/11 22:51:35;;;;;;;28.90;12.80;;;;;;;-3.37;100.00;97420.46;214154;1310;25454;-74
2022/12/11 22:56:37;;;;;;;42.60;15.50;;;;;;;-3.34;100.00;97419.11;214135;1310;22659;-76
2022/12/11 23:01:39;;;;;;;33.30;13.40;;;;;;;-3.34;100.00;97419.06;214261;1306;24431;-75
2022/12/11 23:06:41;;;;;;;37.60;14.20;;;;;;;-3.35;100.00;97421.19;213812;1310;23255;-75
2022/12/11 23:11:43;;;;;;;44.00;15.80;;;;;;;-3.37;100.00;97418.02;214344;1310;25592;-75